Portada
METAR-TAF:

METAR-TAF

Aeroports :

Târgu Mureș, Romania

latitud: 46-32N, longitud: 024-32E, altitud: 308 m

Observació

L'informe es va fer fa 32 minuts, a les 06:00 UTC
Vent 5 kt del Est/Nord-Est, variant entre Nord/Nord-Est i Est
Temperatura 23°C
Humitat 78%
Pressió 1013 hPa

METAR: LRTM 200600Z 06005KT 030V090 //// NSC 23/19 Q1013

Hora: 09:32 (06:32 UTC)

Pronòstic

L'informe es va fer fa 1 hora i 32 minuts, a les 05:00 UTC
Pronòstic vàlid del 20 a les 06 UTC al 20 a les 15 UTC
Vent 4 kt amb direcció variable
Visibilitat 10 km o més
Núvols disperses a una alçada de 5000 ft
Probabilitat 40% :
Temporalment
l' 20 a les 12 UTC al 20 a les 15 UTC
Visibilitat: 5000 m
Núvols disperses a una alçada de 3500 ft, Cumulonimbus.
tempesta, pluja,

TAF: LRTM 200500Z 2006/2015 VRB04KT 9999 SCT050 PROB40 TEMPO 2012/2015 5000 TSRA SCT035CB

Observacions i pronòstics meteorològics de més de 4000 aeroports (METAR i TAF).

Les estacions disponibles són els punts grocs i vermells al mapa.

Posi el ratolí al punt desitjat per veure el nom de l'estació.

Feu clic per veure les observacions i els pronòstics meteorològics.

Per canviar el mapa: feu clic els botons verds amb una creu de color negre per apropar; al botó verd amb un guió per allunyar la imatge; o en les fletxes verdes per a mapes adjacents.


METAR-TAF: